Погода Безгачевона 2 недели

Могилёвская область, Белоруссия

23 мая-05 июня
  • 23мая
    Сегодня
    +10°
    +24°
    Практически безоблачно
    ВремяПогодаТемператураВлажностьДавлениеВетер, м/сВероятность осадков
    00:00Практически безоблачно+15°C92 %752 мм3.2 м/с2 %
    03:00Ясно и безоблачно+13°C96 %752 мм3.2 м/с2 %
    06:00Ясно и безоблачно+14°C93 %752 мм3.6 м/с2 %
    09:00Ясно и безоблачно+19°C75 %753 мм4.1 м/с2 %
    12:00Ясно и безоблачно+23°C58 %754 мм5.3 м/с3 %
    15:00Практически безоблачно+24°C49 %754 мм5.7 м/с3 %
    18:00Ясно и безоблачно+23°C45 %754 мм6.1 м/с1 %
    21:00Ясно и безоблачно+18°C50 %755 мм5.5 м/с2 %
  • 24мая
    Пятница
    +9°
    +21°
    Ясно и безоблачно
    ВремяПогодаТемператураВлажностьДавлениеВетер, м/сВероятность осадков
    00:00Ясно и безоблачно+14°C53 %756 мм5.1 м/с2 %
    03:00Ясно и безоблачно+12°C55 %757 мм5.0 м/с2 %
    06:00Ясно и безоблачно+10°C57 %758 мм4.5 м/с2 %
    09:00Ясно и безоблачно+15°C51 %758 мм4.8 м/с2 %
    12:00Ясно и безоблачно+19°C42 %759 мм4.9 м/с2 %
    15:00Ясно и безоблачно+21°C38 %758 мм5.1 м/с2 %
    18:00Ясно и безоблачно+21°C39 %758 мм4.6 м/с2 %
    21:00Ясно и безоблачно+16°C52 %757 мм3.5 м/с2 %
  • 25мая
    Суббота
    +8°
    +23°
    Ясно и безоблачно
    ВремяПогодаТемператураВлажностьДавлениеВетер, м/сВероятность осадков
    00:00Ясно и безоблачно+12°C60 %758 мм3.5 м/с2 %
    03:00Ясно и безоблачно+10°C62 %758 мм3.6 м/с2 %
    06:00Ясно и безоблачно+10°C61 %758 мм3.4 м/с2 %
    09:00Ясно и безоблачно+16°C50 %758 мм3.0 м/с2 %
    12:00Ясно и безоблачно+21°C38 %758 мм3.0 м/с2 %
    15:00Ясно и безоблачно+22°C34 %757 мм2.8 м/с2 %
    18:00Ясно и безоблачно+23°C35 %756 мм2.6 м/с2 %
    21:00Ясно и безоблачно+16°C65 %755 мм2.6 м/с2 %
  • 26мая
    Воскресенье
    +11°
    +24°
    Ясно и безоблачно
    ВремяПогодаТемператураВлажностьДавлениеВетер, м/сВероятность осадков
    00:00Небольшая облачность+11°C79 %755 мм2.8 м/с2 %
    03:00Облачно с прояснениями+9°C82 %755 мм2.3 м/с2 %
    06:00Облачно с прояснениями+11°C78 %755 мм1.3 м/с2 %
    09:00Облачно с прояснениями+18°C59 %756 мм0.7 м/с2 %
    12:00Небольшая облачность+22°C37 %756 мм1.0 м/с2 %
    15:00Ясно и безоблачно+23°C36 %755 мм1.2 м/с2 %
    18:00Ясно и безоблачно+23°C39 %754 мм2.6 м/с2 %
    21:00Ясно и безоблачно+18°C63 %754 мм1.7 м/с2 %
  • 27мая
    Понедельник
    +13°
    +26°
    Практически безоблачно
    ВремяПогодаТемператураВлажностьДавлениеВетер, м/сВероятность осадков
    00:00Ясно и безоблачно+14°C70 %754 мм2.2 м/с2 %
    03:00Ясно и безоблачно+12°C80 %754 мм2.3 м/с2 %
    06:00Практически безоблачно+13°C80 %755 мм2.0 м/с2 %
    09:00Ясно и безоблачно+19°C68 %755 мм2.0 м/с4 %
    12:00Ясно и безоблачно+24°C49 %755 мм2.7 м/с8 %
    15:00Практически безоблачно+25°C44 %755 мм2.8 м/с42 %
    18:00Небольшая облачность+24°C54 %755 мм3.9 м/с35 %
    21:00Ясно и безоблачно+20°C68 %755 мм2.6 м/с8 %
Мы используем cookies
Соглашаюсь